Time;durP1;ratioP1;P1;durP2;ratioP2;P2;SDS_P1;SDS_P2;PMS_P1;PMS_P2;Temp;Humidity;BMP_temperature;BMP_pressure;BME280_temperature;BME280_humidity;BME280_pressure;Samples;Min_cycle;Max_cycle;Signal;HPM_P1;HPM_P2
2022/03/05 00:02:29;;;;;;;66.82;41.90;;;-0.60;99.90;;;;;;5210430;28;20101;-74
2022/03/05 00:04:59;;;;;;;77.13;50.13;;;-0.80;99.90;;;;;;5210182;28;20033;-74
2022/03/05 00:07:30;;;;;;;68.75;43.20;;;-0.80;99.90;;;;;;5210242;28;20433;-74
2022/03/05 00:10:02;;;;;;;62.72;41.25;;;-0.90;99.90;;;;;;5210337;28;20036;-74
2022/03/05 00:12:33;;;;;;;78.05;47.13;;;-0.80;99.90;;;;;;5210001;28;20032;-74
2022/03/05 00:15:04;;;;;;;81.00;53.65;;;-0.70;99.90;;;;;;5208678;28;20104;-74
2022/03/05 00:17:35;;;;;;;71.63;43.25;;;-0.60;99.90;;;;;;5209948;28;20026;-74
2022/03/05 00:20:07;;;;;;;51.90;34.25;;;-0.90;99.90;;;;;;5209918;28;20028;-74
2022/03/05 00:22:37;;;;;;;53.72;33.92;;;-0.90;99.90;;;;;;5210081;28;20362;-75
2022/03/05 00:25:10;;;;;;;70.53;44.05;;;-1.00;99.90;;;;;;5209721;28;20116;-74
2022/03/05 00:27:42;;;;;;;56.47;35.55;;;-0.90;99.90;;;;;;5209548;28;20030;-73
2022/03/05 00:30:13;;;;;;;79.10;48.60;;;-0.90;99.90;;;;;;5209704;28;20213;-74
2022/03/05 00:32:45;;;;;;;83.05;48.85;;;-0.80;99.90;;;;;;5209658;28;20045;-74
2022/03/05 00:35:17;;;;;;;64.32;40.90;;;-0.90;99.90;;;;;;5209495;28;20049;-74
2022/03/05 00:37:48;;;;;;;65.13;39.75;;;-1.00;99.90;;;;;;5209569;28;20108;-74
2022/03/05 00:40:19;;;;;;;71.45;44.10;;;-1.20;99.90;;;;;;5209401;28;20144;-74
2022/03/05 00:42:50;;;;;;;71.43;43.28;;;-1.10;99.90;;;;;;5209346;28;20603;-73
2022/03/05 00:45:20;;;;;;;72.75;45.60;;;-1.10;99.90;;;;;;5209106;28;20075;-73
2022/03/05 00:47:51;;;;;;;66.50;38.92;;;-1.30;99.90;;;;;;5208995;28;20416;-74
2022/03/05 00:50:22;;;;;;;80.35;45.75;;;-1.20;99.90;;;;;;5208097;28;20052;-74
2022/03/05 00:52:53;;;;;;;57.88;37.92;;;-1.30;99.90;;;;;;5209232;28;20018;-74
2022/03/05 00:55:24;;;;;;;50.50;31.83;;;-1.40;99.90;;;;;;5209197;28;20033;-74
2022/03/05 00:57:55;;;;;;;53.63;33.42;;;-1.00;99.90;;;;;;5209055;28;20389;-74
2022/03/05 01:00:25;;;;;;;53.03;33.50;;;-0.90;99.90;;;;;;5208852;28;20546;-73
2022/03/05 01:02:56;;;;;;;54.35;32.50;;;-0.90;99.90;;;;;;5208974;28;20462;-73
2022/03/05 01:05:27;;;;;;;140.35;73.13;;;-1.10;99.90;;;;;;5209164;28;20029;-74
2022/03/05 01:07:58;;;;;;;191.18;96.03;;;-1.50;99.90;;;;;;5209089;28;20020;-74
2022/03/05 01:10:33;;;;;;;170.23;86.43;;;-1.10;99.90;;;;;;5208819;28;20017;-73
2022/03/05 01:13:09;;;;;;;184.73;96.93;;;-1.10;99.90;;;;;;5208729;28;20022;-73
2022/03/05 01:16:04;;;;;;;193.93;99.32;;;-1.20;99.90;;;;;;5208989;28;20022;-75
2022/03/05 01:18:42;;;;;;;127.40;65.78;;;-1.10;99.90;;;;;;5208867;28;20037;-73
2022/03/05 01:21:14;;;;;;;110.00;60.20;;;-1.10;99.90;;;;;;5208752;28;20033;-73
2022/03/05 01:23:45;;;;;;;94.20;51.65;;;-1.20;99.90;;;;;;5208691;28;20038;-74
2022/03/05 01:26:15;;;;;;;82.65;46.78;;;-1.20;99.90;;;;;;5208754;28;20033;-73
2022/03/05 01:28:46;;;;;;;82.72;46.28;;;-1.10;99.90;;;;;;5208593;28;20424;-73
2022/03/05 01:31:17;;;;;;;161.32;90.18;;;-1.30;99.90;;;;;;5208428;28;20018;-74
2022/03/05 01:33:48;;;;;;;212.20;108.90;;;-1.20;99.90;;;;;;5208413;28;20040;-74
2022/03/05 01:36:19;;;;;;;96.30;54.25;;;-1.10;99.90;;;;;;5208352;28;20104;-74
2022/03/05 01:38:49;;;;;;;60.35;36.65;;;-1.20;99.90;;;;;;5208484;28;20053;-74
2022/03/05 01:41:20;;;;;;;65.32;37.72;;;-1.30;99.90;;;;;;5208222;28;20021;-74
2022/03/05 01:43:52;;;;;;;70.93;41.28;;;-1.30;99.90;;;;;;5206878;28;20405;-73
2022/03/05 01:46:37;;;;;;;95.82;53.50;;;-1.50;99.90;;;;;;5208211;28;20024;-73
2022/03/05 01:49:10;;;;;;;85.05;49.55;;;-1.40;99.90;;;;;;5208292;28;20034;-74
2022/03/05 01:51:42;;;;;;;89.78;52.67;;;-1.30;99.90;;;;;;5208083;28;20036;-74
2022/03/05 01:54:13;;;;;;;99.20;57.38;;;-1.10;99.90;;;;;;5208189;28;20557;-75
2022/03/05 01:56:44;;;;;;;86.72;52.42;;;-1.20;99.90;;;;;;5207907;28;20068;-75
2022/03/05 01:59:15;;;;;;;78.68;47.25;;;-1.30;99.90;;;;;;5206704;28;20492;-74
2022/03/05 02:01:46;;;;;;;60.22;36.85;;;-1.30;99.90;;;;;;5207479;28;20112;-75
2022/03/05 02:04:17;;;;;;;56.22;34.92;;;-1.60;99.90;;;;;;5207893;28;20133;-75
2022/03/05 02:06:48;;;;;;;59.40;35.88;;;-1.50;99.90;;;;;;5208081;28;20310;-74
2022/03/05 02:09:19;;;;;;;55.17;34.30;;;-1.50;99.90;;;;;;5207848;28;20026;-74
2022/03/05 02:11:50;;;;;;;54.13;33.45;;;-1.40;99.90;;;;;;5207702;28;20036;-74
2022/03/05 02:14:21;;;;;;;55.10;34.10;;;-1.40;99.90;;;;;;5207620;28;20377;-75
2022/03/05 02:16:52;;;;;;;53.40;32.90;;;-1.20;99.90;;;;;;5207548;28;20155;-74
2022/03/05 02:19:24;;;;;;;59.67;35.67;;;-1.60;99.90;;;;;;5207520;28;20040;-74
2022/03/05 02:21:55;;;;;;;73.10;44.78;;;-1.80;99.90;;;;;;5207611;28;20477;-76
2022/03/05 02:24:31;;;;;;;84.10;50.33;;;-1.70;99.90;;;;;;5207969;28;20041;-76
2022/03/05 02:27:03;;;;;;;61.40;36.70;;;-1.70;99.90;;;;;;5206180;28;20032;-75
2022/03/05 02:29:35;;;;;;;52.10;32.55;;;-1.60;99.90;;;;;;5207976;28;20063;-74
2022/03/05 02:32:06;;;;;;;50.58;33.25;;;-1.80;99.90;;;;;;5207473;28;20021;-75
2022/03/05 02:34:37;;;;;;;50.80;31.77;;;-1.60;99.90;;;;;;5207601;28;20512;-76
2022/03/05 02:37:13;;;;;;;53.65;33.00;;;-1.60;99.90;;;;;;5207452;28;20053;-76
2022/03/05 02:39:45;;;;;;;58.20;33.60;;;-1.30;99.90;;;;;;5207333;28;20048;-75
2022/03/05 02:42:17;;;;;;;57.20;35.28;;;-1.50;99.90;;;;;;5205990;28;20108;-76
2022/03/05 02:44:48;;;;;;;57.08;34.80;;;-1.50;99.90;;;;;;5207232;28;20148;-74
2022/03/05 02:47:19;;;;;;;70.55;39.60;;;-1.40;99.90;;;;;;5205902;28;20124;-76
2022/03/05 02:49:50;;;;;;;65.00;37.67;;;-1.70;99.90;;;;;;5207058;28;20580;-76
2022/03/05 02:52:21;;;;;;;64.28;36.63;;;-1.60;99.90;;;;;;5207126;28;20033;-76
2022/03/05 02:54:51;;;;;;;54.95;33.83;;;-1.50;99.90;;;;;;5207069;28;20026;-76
2022/03/05 02:57:22;;;;;;;59.67;35.60;;;-1.40;99.90;;;;;;5207399;28;20041;-75
2022/03/05 02:59:53;;;;;;;54.30;33.38;;;-1.50;99.90;;;;;;5206817;28;20120;-76
2022/03/05 03:02:24;;;;;;;57.28;35.13;;;-1.40;99.90;;;;;;5207132;28;20453;-76
2022/03/05 03:04:55;;;;;;;53.42;31.70;;;-1.40;99.90;;;;;;5207436;28;20025;-76
2022/03/05 03:07:25;;;;;;;51.08;29.90;;;-1.40;99.90;;;;;;5207038;28;20025;-75
2022/03/05 03:09:58;;;;;;;46.88;28.55;;;-1.40;99.90;;;;;;5207157;28;20416;-76
2022/03/05 03:12:29;;;;;;;46.50;28.92;;;-1.60;99.90;;;;;;5211159;28;20105;-75
2022/03/05 03:15:01;;;;;;;51.65;30.30;;;-1.70;99.90;;;;;;5211082;28;20184;-75
2022/03/05 03:17:49;;;;;;;52.70;30.13;;;-1.70;99.90;;;;;;5211160;28;20465;-73
2022/03/05 03:20:22;;;;;;;50.72;31.05;;;-1.60;99.90;;;;;;5211276;28;20485;-75
2022/03/05 03:22:54;;;;;;;56.08;34.08;;;-1.50;99.90;;;;;;5210858;28;20025;-76
2022/03/05 03:25:25;;;;;;;56.47;34.63;;;-1.60;99.90;;;;;;5210915;28;20034;-75
2022/03/05 03:27:56;;;;;;;52.88;31.65;;;-1.70;99.90;;;;;;5210739;28;20094;-74
2022/03/05 03:30:27;;;;;;;50.78;32.75;;;-1.50;99.90;;;;;;5210865;28;20033;-75
2022/03/05 03:32:58;;;;;;;50.92;30.90;;;-1.70;99.90;;;;;;5210765;28;20029;-74
2022/03/05 03:35:29;;;;;;;55.13;33.50;;;-1.70;99.90;;;;;;5209393;28;20021;-75
2022/03/05 03:37:59;;;;;;;51.95;31.98;;;-2.00;99.90;;;;;;5210608;28;20029;-74
2022/03/05 03:40:30;;;;;;;46.78;29.30;;;-1.80;99.90;;;;;;5210541;28;20096;-74
2022/03/05 03:43:01;;;;;;;49.53;29.27;;;-1.60;99.90;;;;;;5209272;28;20030;-75
2022/03/05 03:45:32;;;;;;;48.38;30.80;;;-1.60;99.90;;;;;;5210569;28;20055;-75
2022/03/05 03:48:03;;;;;;;52.47;31.40;;;-1.40;99.90;;;;;;5210502;28;20021;-75
2022/03/05 03:50:34;;;;;;;51.72;31.40;;;-1.50;99.90;;;;;;5210040;28;20108;-75
2022/03/05 03:53:05;;;;;;;51.58;31.15;;;-1.80;99.90;;;;;;5209181;28;20171;-75
2022/03/05 03:55:36;;;;;;;50.13;29.90;;;-2.00;99.90;;;;;;5210276;28;20100;-75
2022/03/05 03:58:07;;;;;;;53.42;33.08;;;-1.50;99.90;;;;;;5210253;28;20033;-75
2022/03/05 04:00:38;;;;;;;51.25;30.83;;;-1.40;99.90;;;;;;5210140;28;20041;-74
2022/03/05 04:03:09;;;;;;;52.80;32.83;;;-1.40;99.90;;;;;;5210174;28;20059;-75
2022/03/05 04:05:40;;;;;;;53.22;34.47;;;-1.50;99.90;;;;;;5210342;28;20377;-75
2022/03/05 04:11:01;;;;;;;58.03;36.17;;;-1.60;99.90;;;;;;5210198;28;20029;-75
2022/03/05 04:13:31;;;;;;;75.97;43.00;;;-1.20;99.90;;;;;;5209994;28;20037;-75
2022/03/05 04:16:03;;;;;;;68.90;41.10;;;-1.20;99.90;;;;;;5208683;28;20025;-75
2022/03/05 04:18:34;;;;;;;65.90;38.33;;;-1.10;99.90;;;;;;5209994;28;20036;-75
2022/03/05 04:21:07;;;;;;;61.95;37.95;;;-1.20;99.90;;;;;;5209313;28;20025;-74
2022/03/05 04:23:38;;;;;;;57.20;35.78;;;-1.20;99.90;;;;;;5209701;28;20037;-75
2022/03/05 04:26:08;;;;;;;60.50;37.28;;;-1.30;99.90;;;;;;5209994;28;20022;-74
2022/03/05 04:28:39;;;;;;;65.45;37.25;;;-1.20;99.90;;;;;;5209564;28;20038;-74
2022/03/05 04:31:10;;;;;;;56.15;37.10;;;-1.00;99.90;;;;;;5209855;28;20430;-74
2022/03/05 04:33:41;;;;;;;60.67;37.55;;;-1.00;99.90;;;;;;5209649;28;20112;-74
2022/03/05 04:36:12;;;;;;;60.25;36.15;;;-1.10;99.90;;;;;;5209544;28;20068;-75
2022/03/05 04:38:42;;;;;;;60.45;36.47;;;-1.20;99.90;;;;;;5209481;28;20025;-74
2022/03/05 04:41:13;;;;;;;61.08;37.63;;;-1.00;99.90;;;;;;5209502;28;20021;-74
2022/03/05 04:43:44;;;;;;;65.32;39.42;;;-0.90;99.90;;;;;;5209415;28;20075;-74
2022/03/05 04:46:15;;;;;;;63.17;38.72;;;-1.10;99.90;;;;;;5209444;28;20064;-74
2022/03/05 04:48:46;;;;;;;63.95;37.97;;;-1.00;99.90;;;;;;5209483;28;20026;-74
2022/03/05 04:51:16;;;;;;;64.75;36.25;;;-0.90;99.90;;;;;;5209344;28;20018;-74
2022/03/05 04:53:47;;;;;;;56.60;34.90;;;-0.80;99.90;;;;;;5209189;28;20060;-75
2022/03/05 04:56:18;;;;;;;56.80;34.63;;;-0.60;99.90;;;;;;5209189;28;20487;-74
2022/03/05 04:58:49;;;;;;;58.75;35.83;;;-0.70;99.90;;;;;;5208751;28;20049;-74
2022/03/05 05:01:20;;;;;;;52.15;34.13;;;-0.60;99.90;;;;;;5208941;28;20390;-74
2022/03/05 05:03:50;;;;;;;61.00;33.72;;;-0.60;99.90;;;;;;5209003;28;20037;-73
2022/03/05 05:06:21;;;;;;;55.25;32.08;;;-0.80;99.90;;;;;;5209050;28;20026;-73
2022/03/05 05:08:53;;;;;;;51.28;30.13;;;-0.90;99.90;;;;;;5209035;28;20033;-74
2022/03/05 05:11:25;;;;;;;55.00;30.40;;;-0.70;99.90;;;;;;5208876;28;20537;-74
2022/03/05 05:13:56;;;;;;;54.92;30.65;;;-0.60;99.90;;;;;;5207632;28;20473;-74
2022/03/05 05:16:27;;;;;;;52.70;28.85;;;-0.60;99.90;;;;;;5208891;28;20018;-74
2022/03/05 05:21:47;;;;;;;51.42;29.02;;;-0.30;99.90;;;;;;5209046;28;20025;-74
2022/03/05 05:24:18;;;;;;;50.80;28.98;;;-0.10;99.90;;;;;;5208667;28;20041;-74
2022/03/05 05:26:49;;;;;;;51.55;30.33;;;0.00;99.90;;;;;;5208677;28;20024;-75
2022/03/05 05:29:20;;;;;;;56.92;30.58;;;-0.40;99.90;;;;;;5208434;28;20048;-74
2022/03/05 05:31:51;;;;;;;58.65;30.90;;;-0.60;99.90;;;;;;5208618;28;20485;-74
2022/03/05 05:34:22;;;;;;;51.58;30.55;;;-0.50;99.90;;;;;;5207772;28;20044;-74
2022/03/05 05:36:53;;;;;;;51.30;30.63;;;-0.20;99.90;;;;;;5207211;28;20501;-75
2022/03/05 05:39:24;;;;;;;60.25;32.67;;;-0.20;99.90;;;;;;5208376;28;20018;-74
2022/03/05 05:41:55;;;;;;;56.53;30.33;;;-0.10;99.90;;;;;;5208279;28;20113;-74
2022/03/05 05:44:26;;;;;;;51.42;29.75;;;-0.10;99.90;;;;;;5208288;28;20033;-75
2022/03/05 05:46:57;;;;;;;50.85;29.77;;;-0.10;99.90;;;;;;5208456;28;20029;-75
2022/03/05 05:49:28;;;;;;;54.38;29.10;;;0.00;99.90;;;;;;5208169;28;20037;-73
2022/03/05 05:51:59;;;;;;;49.97;30.02;;;0.10;99.90;;;;;;5208440;28;20029;-75
2022/03/05 05:54:30;;;;;;;58.72;30.85;;;0.20;99.90;;;;;;5208090;28;20048;-75
2022/03/05 05:57:01;;;;;;;55.15;29.88;;;0.20;99.90;;;;;;5207894;28;20033;-77
2022/03/05 05:59:32;;;;;;;54.85;28.95;;;0.30;99.90;;;;;;5207764;28;20045;-76
2022/03/05 06:02:03;;;;;;;54.78;31.08;;;0.40;99.90;;;;;;5207968;28;20026;-76
2022/03/05 06:04:34;;;;;;;52.75;28.17;;;0.40;99.90;;;;;;5207774;28;20026;-76
2022/03/05 06:07:05;;;;;;;54.03;30.45;;;0.50;99.90;;;;;;5207827;28;20052;-75
2022/03/05 06:09:36;;;;;;;51.38;29.52;;;0.50;99.90;;;;;;5207771;28;20097;-75
2022/03/05 06:12:07;;;;;;;52.53;29.48;;;0.40;99.90;;;;;;5207778;28;20032;-75
2022/03/05 06:14:38;;;;;;;53.03;29.27;;;0.50;99.90;;;;;;5207696;28;20025;-75
2022/03/05 06:17:09;;;;;;;68.05;36.78;;;0.60;99.90;;;;;;5207697;28;20025;-76
2022/03/05 06:19:41;;;;;;;69.63;36.22;;;0.40;99.90;;;;;;5207473;28;20052;-76
2022/03/05 06:22:11;;;;;;;68.22;36.85;;;0.50;99.90;;;;;;5207588;28;20025;-76
2022/03/05 06:24:42;;;;;;;63.25;34.65;;;0.70;99.90;;;;;;5207198;28;20039;-76
2022/03/05 06:27:13;;;;;;;58.70;33.08;;;0.80;99.90;;;;;;5207017;28;20389;-76
2022/03/05 06:29:44;;;;;;;56.95;30.80;;;0.80;99.90;;;;;;5206917;28;20072;-76
2022/03/05 06:32:15;;;;;;;56.90;30.70;;;1.00;99.90;;;;;;5207282;28;20171;-75
2022/03/05 06:34:46;;;;;;;50.08;28.63;;;1.00;99.90;;;;;;5207362;28;20018;-75
2022/03/05 06:37:16;;;;;;;47.45;29.25;;;1.00;99.90;;;;;;5207391;28;20049;-76
2022/03/05 06:39:48;;;;;;;50.60;28.92;;;1.00;99.90;;;;;;5207450;28;20024;-76
2022/03/05 06:42:19;;;;;;;52.97;28.63;;;1.00;99.90;;;;;;5207255;28;20052;-76
2022/03/05 06:44:50;;;;;;;51.08;30.55;;;1.10;99.90;;;;;;5205719;28;20036;-76
2022/03/05 06:47:21;;;;;;;55.55;31.88;;;1.10;99.90;;;;;;5207121;28;20847;-76
2022/03/05 06:49:53;;;;;;;57.97;32.28;;;1.30;99.90;;;;;;5207240;28;20445;-76
2022/03/05 06:52:24;;;;;;;63.33;37.30;;;1.20;99.90;;;;;;5201775;28;20359;-77
2022/03/05 06:54:54;;;;;;;61.95;35.53;;;1.40;99.90;;;;;;5186501;28;20025;-77
2022/03/05 06:57:26;;;;;;;62.55;36.78;;;1.50;99.90;;;;;;5185295;28;20061;-76
2022/03/05 06:59:57;;;;;;;63.30;34.17;;;1.40;99.90;;;;;;5186587;28;20069;-76
2022/03/05 07:02:28;;;;;;;69.80;41.33;;;1.50;99.90;;;;;;5186643;28;20030;-77
2022/03/05 07:04:59;;;;;;;73.40;41.58;;;1.40;99.90;;;;;;5186636;28;20073;-77
2022/03/05 07:07:30;;;;;;;75.35;44.05;;;1.60;99.90;;;;;;5186520;28;20069;-76
2022/03/05 07:10:01;;;;;;;65.63;36.88;;;1.80;99.90;;;;;;5186486;28;20053;-76
2022/03/05 07:12:33;;;;;;;72.05;40.63;;;1.80;99.90;;;;;;5186552;28;20061;-78
2022/03/05 07:15:04;;;;;;;80.78;47.00;;;2.00;99.90;;;;;;5186497;28;20029;-75
2022/03/05 07:17:35;;;;;;;82.05;49.72;;;1.90;99.90;;;;;;5186432;28;20030;-78
2022/03/05 07:20:07;;;;;;;72.15;42.97;;;2.20;99.90;;;;;;5186719;28;20437;-78
2022/03/05 07:22:38;;;;;;;86.50;50.17;;;2.20;99.90;;;;;;5186322;28;20030;-75
2022/03/05 07:25:09;;;;;;;85.38;52.67;;;2.10;99.90;;;;;;5186408;28;20040;-75
2022/03/05 07:27:40;;;;;;;118.15;67.55;;;2.10;99.90;;;;;;5186512;28;20498;-76
2022/03/05 07:30:11;;;;;;;105.50;58.85;;;2.10;99.90;;;;;;5186318;28;20053;-75
2022/03/05 07:32:44;;;;;;;87.82;50.60;;;2.10;99.90;;;;;;5186321;28;20033;-76
2022/03/05 07:35:15;;;;;;;71.75;38.90;;;2.30;99.90;;;;;;5186277;28;20037;-77
2022/03/05 07:37:46;;;;;;;62.45;34.95;;;2.40;99.90;;;;;;5186330;28;20492;-75
2022/03/05 07:40:16;;;;;;;66.22;38.65;;;2.50;99.90;;;;;;5186404;28;20045;-78
2022/03/05 07:42:47;;;;;;;209.80;88.95;;;2.70;99.90;;;;;;5185189;28;20014;-78
2022/03/05 07:45:18;;;;;;;550.95;263.48;;;2.70;99.90;;;;;;5186403;28;20034;-78
2022/03/05 07:47:49;;;;;;;89.35;45.88;;;2.80;99.90;;;;;;5186196;28;20026;-76
2022/03/05 07:50:21;;;;;;;67.38;38.22;;;2.90;99.90;;;;;;5186407;28;20489;-77
2022/03/05 07:52:52;;;;;;;79.32;45.97;;;3.00;99.90;;;;;;5188079;28;20084;-79
2022/03/05 07:55:23;;;;;;;56.38;34.72;;;3.00;99.90;;;;;;5189521;28;20026;-80
2022/03/05 07:57:54;;;;;;;60.30;34.90;;;3.00;99.90;;;;;;5190675;28;20057;-79
2022/03/05 08:00:25;;;;;;;65.93;36.35;;;3.10;99.90;;;;;;5188653;28;20046;-77
2022/03/05 08:02:56;;;;;;;57.33;32.70;;;3.40;99.90;;;;;;5190119;28;20056;-78
2022/03/05 08:05:27;;;;;;;56.38;33.40;;;3.60;99.90;;;;;;5190214;28;20390;-77
2022/03/05 08:07:58;;;;;;;54.35;32.58;;;3.80;99.90;;;;;;5189757;28;20034;-77
2022/03/05 08:10:29;;;;;;;59.03;32.58;;;3.90;99.90;;;;;;5188265;28;20453;-80
2022/03/05 08:12:59;;;;;;;55.65;33.80;;;4.00;99.90;;;;;;5204939;28;20029;-77
2022/03/05 08:15:30;;;;;;;62.78;37.03;;;4.10;99.90;;;;;;5202545;28;20024;-79
2022/03/05 08:18:02;;;;;;;84.50;47.92;;;4.10;99.90;;;;;;5209727;28;20537;-79
2022/03/05 08:20:33;;;;;;;103.90;58.63;;;4.00;99.90;;;;;;5209882;28;20021;-76
2022/03/05 08:23:04;;;;;;;106.15;57.92;;;4.20;99.90;;;;;;5209759;28;20029;-80
2022/03/05 08:25:34;;;;;;;96.10;56.10;;;4.50;99.90;;;;;;5209839;28;20033;-78
2022/03/05 08:28:06;;;;;;;99.30;53.92;;;4.40;99.90;;;;;;5209845;28;20030;-77
2022/03/05 08:30:37;;;;;;;91.20;52.00;;;4.70;99.90;;;;;;5209678;28;20022;-79
2022/03/05 08:33:07;;;;;;;108.75;60.55;;;4.90;99.90;;;;;;5209609;28;20393;-76
2022/03/05 08:35:38;;;;;;;147.00;81.55;;;5.00;99.90;;;;;;5209913;28;20481;-77
2022/03/05 08:38:09;;;;;;;146.32;79.45;;;5.00;99.90;;;;;;5209594;28;20555;-76
2022/03/05 08:40:41;;;;;;;134.32;74.30;;;5.00;99.90;;;;;;5209190;28;20061;-77
2022/03/05 08:43:12;;;;;;;90.90;54.65;;;5.20;99.90;;;;;;5209419;28;20418;-76
2022/03/05 08:45:43;;;;;;;93.60;54.10;;;5.30;99.90;;;;;;5208972;28;20100;-79
2022/03/05 08:48:14;;;;;;;99.50;57.15;;;5.40;99.90;;;;;;5209425;28;20457;-78
2022/03/05 08:50:45;;;;;;;98.90;56.70;;;5.50;99.90;;;;;;5209092;28;20025;-76
2022/03/05 08:53:19;;;;;;;86.95;52.03;;;5.60;99.90;;;;;;5209202;28;20029;-75
2022/03/05 08:55:50;;;;;;;81.20;48.42;;;5.70;99.90;;;;;;5209085;28;20112;-78
2022/03/05 08:58:22;;;;;;;73.07;44.03;;;5.80;99.90;;;;;;5208834;28;20104;-75
2022/03/05 09:00:53;;;;;;;60.20;37.78;;;6.10;99.90;;;;;;5208804;28;20061;-76
2022/03/05 09:03:24;;;;;;;43.58;27.13;;;6.30;99.90;;;;;;5208938;28;20453;-79
2022/03/05 09:05:55;;;;;;;44.17;23.95;;;6.50;99.90;;;;;;5208950;28;20108;-76
2022/03/05 09:08:26;;;;;;;36.70;22.65;;;6.60;99.90;;;;;;5208698;28;20029;-75
2022/03/05 09:10:56;;;;;;;37.63;23.20;;;6.60;99.90;;;;;;5208620;28;20052;-79
2022/03/05 09:13:27;;;;;;;29.38;18.77;;;6.90;99.90;;;;;;5208791;28;20095;-79
2022/03/05 09:15:58;;;;;;;30.20;19.17;;;6.90;99.90;;;;;;5208345;28;20108;-76
2022/03/05 09:18:29;;;;;;;34.20;20.52;;;7.00;99.90;;;;;;5207344;28;20028;-76
2022/03/05 09:21:00;;;;;;;30.95;20.15;;;7.00;99.90;;;;;;5208676;28;20077;-78
2022/03/05 09:23:31;;;;;;;29.50;18.27;;;7.20;99.90;;;;;;5208611;28;20036;-78
2022/03/05 09:26:02;;;;;;;25.73;17.45;;;7.20;99.90;;;;;;5208537;28;20025;-78
2022/03/05 09:28:33;;;;;;;28.85;17.55;;;7.20;99.90;;;;;;5208602;28;20039;-77
2022/03/05 09:31:04;;;;;;;26.65;17.35;;;7.40;99.90;;;;;;5208666;28;20029;-76
2022/03/05 09:33:35;;;;;;;24.92;15.30;;;7.60;99.90;;;;;;5208459;28;20104;-77
2022/03/05 09:36:06;;;;;;;24.35;16.05;;;7.60;99.90;;;;;;5208313;28;20465;-77
2022/03/05 09:38:37;;;;;;;26.20;15.23;;;7.70;99.90;;;;;;5208808;28;20467;-77
2022/03/05 09:41:08;;;;;;;27.35;17.60;;;7.60;99.90;;;;;;5207201;28;20072;-76
2022/03/05 09:43:38;;;;;;;27.95;18.08;;;8.00;99.90;;;;;;5208445;28;20067;-77
2022/03/05 09:46:10;;;;;;;28.05;17.60;;;8.00;99.90;;;;;;5208274;28;20496;-76
2022/03/05 09:48:41;;;;;;;31.33;18.08;;;8.00;99.90;;;;;;5208169;28;20025;-76
2022/03/05 09:51:12;;;;;;;49.78;35.65;;;8.00;99.90;;;;;;5207035;28;20417;-76
2022/03/05 09:53:44;;;;;;;43.30;28.25;;;8.40;99.90;;;;;;5208443;28;20053;-77
2022/03/05 09:56:15;;;;;;;55.22;32.58;;;8.30;99.90;;;;;;5206752;28;20536;-76
2022/03/05 09:58:50;;;;;;;44.50;26.83;;;8.30;99.90;;;;;;5207788;28;20132;-76
2022/03/05 10:01:21;;;;;;;36.53;22.35;;;8.50;99.90;;;;;;5207730;28;20439;-76
2022/03/05 10:03:55;;;;;;;64.65;40.22;;;8.50;99.90;;;;;;5207940;28;20042;-76
2022/03/05 10:06:28;;;;;;;36.25;22.50;;;8.60;99.90;;;;;;5207933;28;20045;-76
2022/03/05 10:08:59;;;;;;;37.95;24.15;;;8.60;99.90;;;;;;5207726;28;20034;-76
2022/03/05 10:11:40;;;;;;;35.55;21.80;;;8.80;99.90;;;;;;5206397;28;20027;-76
2022/03/05 10:14:17;;;;;;;34.55;23.67;;;8.80;99.90;;;;;;5207678;28;20021;-76
2022/03/05 10:16:48;;;;;;;28.38;17.90;;;8.70;99.90;;;;;;5208264;28;20496;-76
2022/03/05 10:19:21;;;;;;;22.40;15.63;;;8.50;99.90;;;;;;5207225;28;20026;-76
2022/03/05 10:22:00;;;;;;;30.92;19.23;;;8.50;99.90;;;;;;5207973;28;20377;-76
2022/03/05 10:24:36;;;;;;;24.45;15.20;;;9.00;99.90;;;;;;5207351;28;20044;-76
2022/03/05 10:27:09;;;;;;;27.15;16.80;;;8.80;99.90;;;;;;5207748;28;20017;-76
2022/03/05 10:29:40;;;;;;;27.73;17.30;;;9.10;99.90;;;;;;5207287;28;20116;-77
2022/03/05 10:32:12;;;;;;;25.88;17.90;;;9.00;99.90;;;;;;5207261;28;20104;-76
2022/03/05 10:34:45;;;;;;;27.35;16.42;;;8.80;99.90;;;;;;5207467;28;20432;-76
2022/03/05 10:37:20;;;;;;;28.33;16.83;;;9.10;99.90;;;;;;5207237;28;20144;-77
2022/03/05 10:39:52;;;;;;;28.35;17.52;;;9.10;99.90;;;;;;5207447;28;20026;-77
2022/03/05 10:42:25;;;;;;;30.25;18.17;;;9.60;99.90;;;;;;5219569;28;20034;-75
2022/03/05 10:45:18;;;;;;;24.75;17.38;;;9.40;99.90;;;;;;5206990;28;20032;-76
2022/03/05 10:47:49;;;;;;;28.98;18.20;;;9.40;99.90;;;;;;5207113;28;20359;-77
2022/03/05 10:50:31;;;;;;;27.23;18.75;;;9.40;99.90;;;;;;5207326;28;20108;-76
2022/03/05 10:53:02;;;;;;;26.02;16.20;;;9.40;99.90;;;;;;5206902;28;20354;-77
2022/03/05 10:55:37;;;;;;;31.55;19.98;;;9.20;99.90;;;;;;5206951;28;20037;-77
2022/03/05 10:58:17;;;;;;;24.10;17.08;;;9.40;99.90;;;;;;5206935;28;20033;-77
2022/03/05 11:00:49;;;;;;;26.33;17.15;;;9.50;99.90;;;;;;5206713;28;20191;-76
2022/03/05 11:03:21;;;;;;;26.02;16.55;;;9.40;99.90;;;;;;5206988;28;20112;-77
2022/03/05 11:05:52;;;;;;;23.08;17.23;;;9.30;99.90;;;;;;5206993;28;20037;-77
2022/03/05 11:08:26;;;;;;;26.70;18.25;;;9.70;99.90;;;;;;5206848;28;20029;-77
2022/03/05 11:10:57;;;;;;;29.83;19.67;;;9.70;99.90;;;;;;5206817;28;20100;-78
2022/03/05 11:13:28;;;;;;;32.65;19.70;;;9.90;99.90;;;;;;5206814;28;20540;-78
2022/03/05 11:16:01;;;;;;;30.67;18.42;;;9.80;99.90;;;;;;5206982;28;20083;-76
2022/03/05 11:18:32;;;;;;;24.52;17.65;;;9.70;99.90;;;;;;5206542;28;20108;-76
2022/03/05 11:21:04;;;;;;;24.23;16.83;;;9.70;99.90;;;;;;5206787;28;20052;-77
2022/03/05 11:23:38;;;;;;;22.55;15.27;;;9.90;99.90;;;;;;5206727;28;20021;-77
2022/03/05 11:26:09;;;;;;;27.40;17.58;;;9.80;99.90;;;;;;5206938;28;20025;-77
2022/03/05 11:28:47;;;;;;;22.92;16.25;;;10.10;99.90;;;;;;5206868;28;20022;-76
2022/03/05 11:31:24;;;;;;;30.67;19.05;;;10.10;99.90;;;;;;5207470;28;20126;-75
2022/03/05 11:33:55;;;;;;;37.75;26.45;;;10.10;99.90;;;;;;5210704;28;20075;-76
2022/03/05 11:36:36;;;;;;;64.35;40.28;;;10.20;99.90;;;;;;5210852;28;20037;-75
2022/03/05 11:39:31;;;;;;;43.08;24.88;;;10.60;99.90;;;;;;5210615;28;20068;-74
2022/03/05 11:42:05;;;;;;;32.25;19.02;;;10.40;99.90;;;;;;5210629;28;20037;-77
2022/03/05 11:44:36;;;;;;;27.35;19.25;;;10.40;99.90;;;;;;5210548;28;20033;-75
2022/03/05 11:47:18;;;;;;;30.35;21.45;;;10.40;99.90;;;;;;5210895;28;20424;-77
2022/03/05 11:49:58;;;;;;;29.25;17.48;;;10.60;99.90;;;;;;5209389;28;20029;-76
2022/03/05 11:52:38;;;;;;;26.23;17.73;;;10.80;99.90;;;;;;5210430;28;20017;-77
2022/03/05 11:55:19;;;;;;;26.25;17.65;;;10.30;99.90;;;;;;5209133;28;20541;-76
2022/03/05 11:57:50;;;;;;;26.08;16.05;;;10.30;99.90;;;;;;5209208;28;20053;-78
2022/03/05 12:00:41;;;;;;;29.52;18.55;;;10.30;99.90;;;;;;5208704;28;20516;-79
2022/03/05 12:03:38;;;;;;;27.33;16.83;;;10.60;99.90;;;;;;5216358;28;20051;-76
2022/03/05 12:06:11;;;;;;;30.00;19.23;;;10.40;99.90;;;;;;5230677;28;20051;-76
2022/03/05 12:08:50;;;;;;;24.42;15.70;;;10.80;99.90;;;;;;5231003;28;20025;-78
2022/03/05 12:11:21;;;;;;;24.27;16.23;;;10.80;99.90;;;;;;5230546;28;20025;-76
2022/03/05 12:13:55;;;;;;;24.15;16.42;;;11.10;99.90;;;;;;5230756;28;20017;-78
2022/03/05 12:16:28;;;;;;;25.55;16.73;;;10.80;99.90;;;;;;5229436;28;20032;-76
2022/03/05 12:18:59;;;;;;;23.08;17.60;;;11.10;99.90;;;;;;5229272;28;20055;-77
2022/03/05 12:21:35;;;;;;;24.45;16.17;;;11.00;99.90;;;;;;5230723;28;20052;-76
2022/03/05 12:24:09;;;;;;;25.10;16.15;;;10.80;99.90;;;;;;5229274;28;20072;-77
2022/03/05 12:26:50;;;;;;;23.05;15.23;;;10.60;99.90;;;;;;5245702;28;20389;-78
2022/03/05 12:29:21;;;;;;;27.02;16.90;;;10.30;99.90;;;;;;5213966;28;20057;-77
2022/03/05 12:31:51;;;;;;;24.95;16.27;;;10.70;99.90;;;;;;5209302;28;20053;-76
2022/03/05 12:34:26;;;;;;;36.35;22.08;;;10.50;99.90;;;;;;5208306;28;20033;-77
2022/03/05 12:36:57;;;;;;;30.90;22.67;;;10.40;99.90;;;;;;5209242;28;20021;-78
2022/03/05 12:39:29;;;;;;;31.25;20.48;;;10.10;99.90;;;;;;5209388;28;20435;-77
2022/03/05 12:42:00;;;;;;;36.10;22.77;;;10.10;99.90;;;;;;5210293;28;20390;-76
2022/03/05 12:44:35;;;;;;;27.50;18.67;;;10.30;99.90;;;;;;5209361;28;20543;-77
2022/03/05 12:47:07;;;;;;;30.08;18.35;;;10.20;99.90;;;;;;5208145;28;20026;-76
2022/03/05 12:49:38;;;;;;;27.35;18.73;;;10.10;99.90;;;;;;5201247;28;20087;-77
2022/03/05 12:52:16;;;;;;;26.15;17.42;;;10.00;99.90;;;;;;5197479;28;20060;-76
2022/03/05 12:54:54;;;;;;;28.42;19.38;;;9.90;99.90;;;;;;5218037;28;20025;-76
2022/03/05 12:57:25;;;;;;;42.53;25.42;;;9.60;99.90;;;;;;5199348;28;20037;-75
2022/03/05 13:00:08;;;;;;;27.75;18.98;;;9.70;99.90;;;;;;5202017;28;20061;-79
2022/03/05 13:02:39;;;;;;;24.30;17.20;;;9.90;99.90;;;;;;5197918;28;20040;-76